Time;durP1;ratioP1;P1;durP2;ratioP2;P2;SDS_P1;SDS_P2;PMS_P1;PMS_P2;Temp;Humidity;BMP_temperature;BMP_pressure;BME280_temperature;BME280_humidity;BME280_pressure;Samples;Min_cycle;Max_cycle;Signal;HPM_P1;HPM_P2
2021/10/10 00:00:47;;;;;;;12.80;7.20;;;6.10;87.10;;;;;;4993392;28;20037;-79
2021/10/10 00:03:13;;;;;;;15.73;7.75;;;6.10;87.60;;;;;;4992860;28;20396;-80
2021/10/10 00:05:39;;;;;;;13.38;8.15;;;6.10;87.50;;;;;;4989792;28;20037;-81
2021/10/10 00:08:05;;;;;;;11.82;7.53;;;6.10;87.20;;;;;;4992365;28;20093;-80
2021/10/10 00:10:31;;;;;;;13.77;9.02;;;6.10;87.10;;;;;;4993833;28;20026;-80
2021/10/10 00:12:58;;;;;;;14.40;7.60;;;6.00;87.20;;;;;;4995806;28;20033;-79
2021/10/10 00:15:23;;;;;;;13.65;8.15;;;6.00;87.70;;;;;;4991516;28;20512;-79
2021/10/10 00:17:49;;;;;;;14.38;7.38;;;6.00;88.90;;;;;;4993771;28;20027;-80
2021/10/10 00:20:16;;;;;;;12.35;7.30;;;6.00;88.90;;;;;;4990280;28;20053;-79
2021/10/10 00:22:42;;;;;;;11.13;7.38;;;6.00;90.00;;;;;;4994248;28;20018;-80
2021/10/10 00:25:08;;;;;;;14.35;7.90;;;6.00;90.10;;;;;;4991224;28;20033;-79
2021/10/10 00:27:35;;;;;;;15.27;7.93;;;6.10;90.30;;;;;;4991096;28;20022;-79
2021/10/10 00:30:02;;;;;;;14.73;8.98;;;6.00;90.30;;;;;;4993144;28;20029;-80
2021/10/10 00:32:28;;;;;;;13.90;7.47;;;5.90;89.00;;;;;;4995691;28;20034;-80
2021/10/10 00:34:54;;;;;;;10.13;6.65;;;5.90;88.00;;;;;;4999902;28;20026;-80
2021/10/10 00:37:20;;;;;;;9.82;6.45;;;5.90;87.70;;;;;;4987044;28;20114;-80
2021/10/10 00:39:46;;;;;;;8.15;5.63;;;5.90;88.10;;;;;;4993378;28;20549;-80
2021/10/10 00:42:11;;;;;;;8.65;6.70;;;5.90;88.30;;;;;;4995412;28;20026;-80
2021/10/10 00:44:37;;;;;;;14.50;7.30;;;5.80;88.60;;;;;;4995880;28;20040;-80
2021/10/10 00:47:02;;;;;;;12.10;7.93;;;5.70;88.70;;;;;;4993353;28;20102;-79
2021/10/10 00:49:28;;;;;;;10.75;7.18;;;5.70;88.70;;;;;;4992331;28;20053;-80
2021/10/10 00:51:57;;;;;;;12.43;7.90;;;5.60;88.80;;;;;;4998341;28;20026;-80
2021/10/10 00:54:24;;;;;;;12.27;8.77;;;5.50;88.80;;;;;;4995859;28;20066;-79
2021/10/10 00:56:53;;;;;;;13.23;7.60;;;5.40;89.20;;;;;;4993935;28;20120;-80
2021/10/10 00:59:21;;;;;;;10.95;8.13;;;5.30;89.10;;;;;;4996790;28;20539;-80
2021/10/10 01:01:50;;;;;;;;;;;5.30;89.70;;;;;;5005786;28;20035;-80
2021/10/10 01:04:17;;;;;;;13.10;6.18;;;5.30;89.60;;;;;;4997555;28;19909;-79
2021/10/10 01:06:43;;;;;;;8.52;6.03;;;5.30;89.40;;;;;;4996996;28;20436;-79
2021/10/10 01:09:13;;;;;;;11.23;6.57;;;5.20;88.70;;;;;;5002156;28;20497;-80
2021/10/10 01:11:40;;;;;;;12.27;7.32;;;5.20;87.30;;;;;;4992522;28;20121;-80
2021/10/10 01:14:07;;;;;;;9.40;6.63;;;5.10;85.50;;;;;;4989089;28;20047;-80
2021/10/10 01:16:33;;;;;;;12.43;6.60;;;5.10;85.00;;;;;;4997029;28;20025;-80
2021/10/10 01:18:59;;;;;;;12.85;6.93;;;5.10;87.10;;;;;;4994138;28;20089;-79
2021/10/10 01:21:25;;;;;;;14.52;7.88;;;5.10;87.00;;;;;;4996463;28;20030;-80
2021/10/10 01:23:51;;;;;;;15.60;8.30;;;5.00;87.20;;;;;;4991093;28;20034;-79
2021/10/10 01:26:18;;;;;;;15.55;7.85;;;5.00;87.60;;;;;;4992515;28;20257;-80
2021/10/10 01:28:44;;;;;;;14.50;8.80;;;5.00;88.50;;;;;;5007170;28;20087;-80
2021/10/10 01:31:09;;;;;;;14.13;8.35;;;4.90;89.40;;;;;;4996469;28;20082;-79
2021/10/10 01:33:36;;;;;;;13.95;7.53;;;5.00;90.90;;;;;;4994596;28;20031;-80
2021/10/10 01:36:02;;;;;;;16.27;8.65;;;5.20;91.20;;;;;;4997693;28;20026;-80
2021/10/10 01:38:28;;;;;;;14.52;7.95;;;5.20;91.30;;;;;;4993485;28;20026;-79
2021/10/10 01:40:54;;;;;;;16.88;8.68;;;5.30;91.50;;;;;;4997255;28;20077;-80
2021/10/10 01:43:19;;;;;;;14.68;8.73;;;5.30;91.80;;;;;;4988672;28;20026;-80
2021/10/10 01:45:46;;;;;;;16.65;8.65;;;5.30;91.30;;;;;;4995063;28;20022;-80
2021/10/10 01:48:12;;;;;;;16.25;8.27;;;5.30;91.30;;;;;;4997023;28;20121;-80
2021/10/10 01:50:38;;;;;;;16.48;8.20;;;5.30;91.90;;;;;;4999583;28;20068;-80
2021/10/10 01:53:04;;;;;;;14.00;8.45;;;5.30;91.70;;;;;;4994645;28;20030;-80
2021/10/10 01:55:30;;;;;;;18.10;8.55;;;5.40;91.60;;;;;;4995526;28;20065;-79
2021/10/10 01:57:56;;;;;;;12.88;8.07;;;5.30;91.30;;;;;;4995160;28;20066;-79
2021/10/10 02:00:22;;;;;;;14.20;8.50;;;5.40;91.40;;;;;;4995029;28;20693;-79
2021/10/10 02:02:48;;;;;;;13.57;8.32;;;5.40;91.50;;;;;;4988547;28;20030;-80
2021/10/10 02:05:13;;;;;;;15.15;7.43;;;5.30;91.30;;;;;;4996685;28;20015;-79
2021/10/10 02:07:40;;;;;;;12.90;8.15;;;5.10;89.90;;;;;;4996472;28;20034;-80
2021/10/10 02:10:07;;;;;;;11.02;6.28;;;4.90;88.70;;;;;;4981899;28;20041;-80
2021/10/10 02:12:33;;;;;;;10.52;5.72;;;4.70;89.30;;;;;;5004848;28;20071;-79
2021/10/10 02:14:59;;;;;;;9.27;5.68;;;4.70;90.10;;;;;;4993979;28;20085;-79
2021/10/10 02:17:25;;;;;;;10.57;6.82;;;4.80;90.40;;;;;;4992027;28;20038;-79
2021/10/10 02:19:50;;;;;;;8.30;6.05;;;4.70;90.70;;;;;;4988748;28;20040;-80
2021/10/10 02:22:16;;;;;;;8.18;6.25;;;4.70;90.90;;;;;;4995887;28;20042;-79
2021/10/10 02:24:41;;;;;;;8.75;5.95;;;4.80;91.00;;;;;;4995457;28;20027;-80
2021/10/10 02:27:07;;;;;;;13.63;7.13;;;4.80;91.10;;;;;;4994528;28;20022;-80
2021/10/10 02:29:33;;;;;;;11.50;7.05;;;4.70;90.90;;;;;;4994820;28;20030;-79
2021/10/10 02:31:58;;;;;;;11.93;7.35;;;4.70;91.00;;;;;;4994398;28;20500;-80
2021/10/10 02:34:24;;;;;;;10.77;7.72;;;4.70;91.50;;;;;;4995822;28;20022;-79
2021/10/10 02:36:50;;;;;;;17.40;8.35;;;4.70;91.40;;;;;;4994615;28;20030;-79
2021/10/10 02:39:15;;;;;;;12.60;7.47;;;4.70;91.40;;;;;;4995048;28;20077;-80
2021/10/10 02:41:41;;;;;;;15.85;8.52;;;4.70;91.70;;;;;;4994269;28;20045;-80
2021/10/10 02:44:07;;;;;;;13.52;8.48;;;4.70;91.00;;;;;;4992602;28;20101;-79
2021/10/10 02:46:32;;;;;;;10.80;7.00;;;4.60;89.40;;;;;;4993452;28;20026;-80
2021/10/10 02:49:00;;;;;;;12.57;7.30;;;4.50;88.40;;;;;;4993905;28;20063;-79
2021/10/10 02:51:26;;;;;;;14.13;7.80;;;4.40;88.10;;;;;;4993106;28;20599;-79
2021/10/10 02:53:51;;;;;;;18.70;8.10;;;4.40;90.30;;;;;;4993903;28;20073;-79
2021/10/10 02:56:17;;;;;;;8.43;6.60;;;4.50;91.50;;;;;;4990718;28;20030;-79
2021/10/10 02:58:43;;;;;;;9.82;6.57;;;4.50;90.10;;;;;;4984672;28;20421;-79
2021/10/10 03:01:10;;;;;;;11.18;6.07;;;4.30;87.10;;;;;;4987405;28;20027;-79
2021/10/10 03:03:35;;;;;;;4.57;3.97;;;4.10;87.50;;;;;;4991696;28;20505;-79
2021/10/10 03:06:01;;;;;;;5.75;4.65;;;4.10;88.30;;;;;;4994039;28;20030;-80
2021/10/10 03:08:27;;;;;;;21.25;4.93;;;4.00;89.10;;;;;;4993213;28;20741;-79
2021/10/10 03:10:52;;;;;;;6.90;4.90;;;4.00;88.80;;;;;;4989241;28;20406;-79
2021/10/10 03:13:18;;;;;;;10.07;5.85;;;3.90;89.40;;;;;;4991101;28;20030;-79
2021/10/10 03:15:43;;;;;;;8.48;5.72;;;3.90;90.30;;;;;;4991267;28;20042;-79
2021/10/10 03:18:09;;;;;;;9.43;5.57;;;3.80;90.30;;;;;;4993375;28;20026;-80
2021/10/10 03:20:35;;;;;;;13.15;7.85;;;3.70;90.60;;;;;;4993866;28;20076;-79
2021/10/10 03:23:00;;;;;;;11.38;7.22;;;3.80;90.90;;;;;;4986338;28;20374;-80
2021/10/10 03:25:26;;;;;;;14.45;7.88;;;3.70;91.10;;;;;;4993141;28;20080;-80
2021/10/10 03:27:52;;;;;;;13.23;8.70;;;3.60;91.40;;;;;;4991656;28;20041;-79
2021/10/10 03:30:17;;;;;;;14.50;9.20;;;3.70;91.90;;;;;;4990600;28;20105;-79
2021/10/10 03:32:43;;;;;;;16.42;8.27;;;3.80;92.70;;;;;;4993283;28;20057;-79
2021/10/10 03:35:09;;;;;;;15.25;8.18;;;3.70;91.90;;;;;;4991557;28;20058;-80
2021/10/10 03:37:35;;;;;;;8.40;5.63;;;3.60;91.00;;;;;;4988108;28;20404;-80
2021/10/10 03:40:06;;;;;;;5.72;4.35;;;3.60;90.30;;;;;;4997332;28;20018;-79
2021/10/10 03:42:31;;;;;;;7.68;4.72;;;3.50;90.20;;;;;;4989787;28;20022;-79
2021/10/10 03:44:57;;;;;;;5.40;4.50;;;3.50;90.00;;;;;;4992106;28;20019;-79
2021/10/10 03:47:23;;;;;;;4.32;3.85;;;3.50;90.50;;;;;;4995029;28;20038;-79
2021/10/10 03:49:49;;;;;;;7.03;5.07;;;3.60;90.50;;;;;;4990976;28;20537;-79
2021/10/10 03:52:14;;;;;;;5.47;4.70;;;3.60;91.10;;;;;;4992692;28;20038;-79
2021/10/10 03:57:25;;;;;;;8.00;5.40;;;3.60;91.20;;;;;;4989280;28;20018;-79
2021/10/10 03:59:59;;;;;;;8.48;5.68;;;3.70;91.30;;;;;;4996724;28;20023;-79
2021/10/10 04:02:25;;;;;;;12.55;7.50;;;3.70;91.40;;;;;;4992341;28;20057;-79
2021/10/10 04:04:52;;;;;;;10.43;6.75;;;3.70;92.80;;;;;;4993057;28;20100;-79
2021/10/10 04:07:18;;;;;;;8.68;6.53;;;3.80;92.10;;;;;;4992606;28;20109;-79
2021/10/10 04:09:44;;;;;;;9.82;7.72;;;3.80;91.60;;;;;;4992300;28;20034;-80
2021/10/10 04:12:10;;;;;;;12.95;7.35;;;3.90;91.30;;;;;;4993326;28;20042;-79
2021/10/10 04:14:36;;;;;;;10.50;7.07;;;3.80;91.10;;;;;;4991436;28;20390;-79
2021/10/10 04:17:02;;;;;;;12.85;7.60;;;3.90;90.90;;;;;;4988040;28;20508;-79
2021/10/10 04:19:27;;;;;;;12.13;7.15;;;3.80;90.60;;;;;;4991007;28;20081;-80
2021/10/10 04:21:54;;;;;;;14.85;7.15;;;3.80;90.70;;;;;;4993241;28;20149;-80
2021/10/10 04:24:19;;;;;;;13.68;8.55;;;3.70;90.60;;;;;;4992080;28;20500;-79
2021/10/10 04:26:45;;;;;;;12.00;6.72;;;3.70;90.40;;;;;;4993043;28;20018;-80
2021/10/10 04:29:11;;;;;;;15.40;7.10;;;3.70;89.80;;;;;;4989754;28;20405;-79
2021/10/10 04:31:36;;;;;;;12.18;7.82;;;3.60;90.10;;;;;;4990797;28;20493;-80
2021/10/10 04:34:02;;;;;;;14.95;7.50;;;3.60;90.00;;;;;;4990012;28;20038;-80
2021/10/10 04:36:28;;;;;;;12.20;7.28;;;3.60;90.30;;;;;;4980939;28;20080;-80
2021/10/10 04:38:53;;;;;;;6.40;4.53;;;3.40;89.60;;;;;;4990581;28;20026;-79
2021/10/10 04:41:19;;;;;;;7.18;4.57;;;3.30;90.40;;;;;;4992909;28;21502;-79
2021/10/10 04:43:45;;;;;;;5.18;4.45;;;3.30;90.20;;;;;;4992339;28;20037;-80
2021/10/10 04:46:11;;;;;;;6.57;5.07;;;3.30;90.00;;;;;;4993019;28;20074;-78
2021/10/10 04:48:36;;;;;;;7.35;4.95;;;3.20;90.40;;;;;;4988054;28;20061;-80
2021/10/10 04:51:02;;;;;;;6.45;4.82;;;3.20;90.40;;;;;;4993242;28;20042;-80
2021/10/10 04:53:27;;;;;;;8.10;4.40;;;3.20;90.20;;;;;;4992437;28;20027;-80
2021/10/10 04:55:53;;;;;;;8.55;4.93;;;3.10;89.70;;;;;;4992496;28;20046;-79
2021/10/10 04:58:19;;;;;;;7.30;4.50;;;3.10;89.30;;;;;;4986607;28;20026;-79
2021/10/10 05:00:44;;;;;;;7.40;4.72;;;3.10;89.90;;;;;;4992582;28;20061;-79
2021/10/10 05:03:10;;;;;;;6.15;4.60;;;3.10;90.20;;;;;;4993429;28;20089;-79
2021/10/10 05:05:36;;;;;;;8.73;6.43;;;3.20;90.70;;;;;;4995722;28;20031;-79
2021/10/10 05:08:01;;;;;;;21.83;7.90;;;3.10;91.00;;;;;;4990249;28;20118;-80
2021/10/10 05:10:27;;;;;;;9.38;6.25;;;3.20;91.50;;;;;;4991848;28;20026;-79
2021/10/10 05:12:53;;;;;;;10.05;7.32;;;3.20;91.20;;;;;;4990713;28;20042;-79
2021/10/10 05:15:18;;;;;;;11.30;6.80;;;3.20;91.00;;;;;;4991719;28;20485;-79
2021/10/10 05:17:44;;;;;;;9.50;6.13;;;3.20;91.10;;;;;;4993923;28;20035;-79
2021/10/10 05:20:10;;;;;;;10.27;6.80;;;3.20;91.40;;;;;;4994760;28;20033;-79
2021/10/10 05:22:36;;;;;;;10.95;6.82;;;3.10;91.60;;;;;;4995753;28;20026;-80
2021/10/10 05:25:02;;;;;;;27.83;8.93;;;3.10;91.50;;;;;;4993545;28;20642;-78
2021/10/10 05:27:27;;;;;;;32.42;7.75;;;3.10;91.10;;;;;;4993550;28;20023;-80
2021/10/10 05:29:53;;;;;;;13.25;6.97;;;3.00;91.10;;;;;;4992823;28;20038;-79
2021/10/10 05:32:19;;;;;;;32.55;8.32;;;3.00;91.50;;;;;;4994776;28;20117;-79
2021/10/10 05:34:45;;;;;;;14.23;7.30;;;3.00;91.60;;;;;;4997091;28;20019;-79
2021/10/10 05:37:10;;;;;;;9.35;6.80;;;2.90;91.70;;;;;;4995272;28;20473;-80
2021/10/10 05:39:36;;;;;;;10.35;6.55;;;2.90;91.60;;;;;;4991269;28;20061;-79
2021/10/10 05:42:02;;;;;;;14.45;7.68;;;2.90;91.50;;;;;;4995321;28;20031;-79
2021/10/10 05:44:28;;;;;;;10.50;7.20;;;2.90;91.40;;;;;;5000805;28;20030;-79
2021/10/10 05:46:53;;;;;;;12.50;7.65;;;3.00;91.40;;;;;;4995138;28;20433;-79
2021/10/10 05:49:19;;;;;;;13.57;7.53;;;2.90;91.70;;;;;;4993374;28;20030;-79
2021/10/10 05:51:46;;;;;;;12.75;8.25;;;2.90;92.10;;;;;;4991380;28;20549;-79
2021/10/10 05:54:14;;;;;;;10.68;6.97;;;3.00;91.70;;;;;;4992376;28;20485;-81
2021/10/10 05:56:40;;;;;;;13.63;7.38;;;3.00;91.50;;;;;;4994976;28;20485;-80
2021/10/10 05:59:08;;;;;;;12.95;7.28;;;3.00;91.10;;;;;;4990986;28;20030;-80
2021/10/10 06:01:34;;;;;;;15.50;6.88;;;2.90;90.90;;;;;;4994778;28;20533;-80
2021/10/10 06:04:02;;;;;;;9.75;5.85;;;2.80;90.10;;;;;;4996393;28;21362;-80
2021/10/10 06:06:28;;;;;;;16.50;6.67;;;2.80;90.20;;;;;;4999138;28;20050;-80
2021/10/10 06:08:53;;;;;;;10.43;6.30;;;2.80;90.00;;;;;;4995712;28;20851;-80
2021/10/10 06:11:19;;;;;;;10.02;6.18;;;2.70;87.50;;;;;;4991518;28;20043;-79
2021/10/10 06:13:45;;;;;;;9.75;6.15;;;2.50;88.10;;;;;;4990223;28;20118;-80
2021/10/10 06:16:11;;;;;;;13.60;7.68;;;2.60;89.60;;;;;;4992415;28;20026;-79
2021/10/10 06:18:36;;;;;;;12.00;6.75;;;2.60;90.10;;;;;;4994247;28;20026;-79
2021/10/10 06:21:02;;;;;;;10.90;7.00;;;2.70;90.80;;;;;;4992485;28;20045;-79
2021/10/10 06:23:28;;;;;;;12.93;7.28;;;2.80;91.20;;;;;;4993300;28;20044;-79
2021/10/10 06:25:53;;;;;;;12.10;7.78;;;2.90;91.60;;;;;;4991103;28;20030;-79
2021/10/10 06:28:19;;;;;;;15.75;8.63;;;2.80;92.20;;;;;;4993997;28;20031;-80
2021/10/10 06:30:45;;;;;;;14.38;8.02;;;2.80;93.10;;;;;;4994431;28;20057;-80
2021/10/10 06:33:10;;;;;;;11.25;6.85;;;2.90;93.30;;;;;;4995864;28;20077;-80
2021/10/10 06:35:36;;;;;;;12.50;7.38;;;3.00;92.70;;;;;;4995156;28;20030;-80
2021/10/10 06:38:02;;;;;;;16.15;8.30;;;3.00;92.30;;;;;;4993008;28;20498;-79
2021/10/10 06:40:27;;;;;;;14.45;8.60;;;3.00;92.40;;;;;;4993350;28;20031;-79
2021/10/10 06:42:53;;;;;;;14.57;8.13;;;3.00;92.90;;;;;;4994431;28;20557;-79
2021/10/10 06:45:19;;;;;;;11.68;7.97;;;3.10;93.00;;;;;;4992932;28;20030;-80
2021/10/10 06:47:44;;;;;;;11.60;8.02;;;3.10;93.70;;;;;;4995220;28;20028;-79
2021/10/10 06:50:10;;;;;;;16.92;8.85;;;3.20;93.60;;;;;;4995784;28;20022;-79
2021/10/10 06:52:36;;;;;;;12.05;8.32;;;3.30;93.70;;;;;;4994050;28;20030;-79
2021/10/10 06:55:02;;;;;;;15.65;8.73;;;3.30;93.80;;;;;;5007947;28;20094;-79
2021/10/10 06:57:30;;;;;;;14.95;10.20;;;3.40;94.00;;;;;;5000015;28;20026;-79
2021/10/10 06:59:58;;;;;;;15.98;10.25;;;3.60;94.00;;;;;;4985345;28;20081;-79
2021/10/10 07:02:25;;;;;;;14.50;9.57;;;3.60;94.40;;;;;;4991650;28;20568;-79
2021/10/10 07:04:51;;;;;;;15.48;9.45;;;3.70;94.30;;;;;;4994033;28;20022;-80
2021/10/10 07:07:17;;;;;;;15.82;9.38;;;3.80;94.40;;;;;;4990939;28;20058;-79
2021/10/10 07:09:43;;;;;;;14.80;8.30;;;3.80;94.30;;;;;;4988837;28;20065;-79
2021/10/10 07:12:08;;;;;;;18.38;10.15;;;3.90;94.30;;;;;;4993614;28;20042;-80
2021/10/10 07:14:34;;;;;;;15.05;8.60;;;4.00;94.40;;;;;;4994476;28;20101;-79
2021/10/10 07:17:00;;;;;;;13.80;8.77;;;4.00;94.50;;;;;;4988381;28;20054;-79
2021/10/10 07:19:33;;;;;;;15.20;9.93;;;4.10;94.30;;;;;;4993315;28;20643;-79
2021/10/10 07:22:03;;;;;;;17.77;9.85;;;4.10;94.50;;;;;;4994836;28;20023;-80
2021/10/10 07:27:13;;;;;;;18.75;11.38;;;4.30;95.20;;;;;;4991157;28;20081;-78
2021/10/10 07:29:38;;;;;;;19.88;10.50;;;4.40;96.50;;;;;;4993533;28;20030;-79
2021/10/10 07:32:05;;;;;;;21.65;12.00;;;4.50;96.70;;;;;;4989385;28;20663;-79
2021/10/10 07:34:31;;;;;;;21.65;10.52;;;4.60;97.20;;;;;;4989006;28;20030;-78
2021/10/10 07:36:56;;;;;;;21.50;10.43;;;4.70;97.20;;;;;;4994344;28;20405;-78
2021/10/10 07:39:22;;;;;;;20.77;11.23;;;4.90;97.30;;;;;;4994157;28;20034;-78
2021/10/10 07:41:49;;;;;;;21.08;11.38;;;5.00;97.40;;;;;;4993718;28;20034;-78
2021/10/10 07:44:16;;;;;;;24.90;10.68;;;5.10;97.60;;;;;;5006602;28;20023;-78
2021/10/10 07:46:43;;;;;;;16.00;10.48;;;5.20;97.50;;;;;;4993974;28;20489;-79
2021/10/10 07:49:09;;;;;;;16.15;11.15;;;5.20;96.60;;;;;;4992560;28;20022;-79
2021/10/10 07:51:37;;;;;;;20.30;11.48;;;5.20;96.30;;;;;;4989611;28;20540;-80
2021/10/10 07:54:03;;;;;;;22.70;12.30;;;5.30;96.50;;;;;;4994687;28;20117;-79
2021/10/10 07:56:28;;;;;;;17.88;9.35;;;5.40;96.70;;;;;;4993955;28;20028;-79
2021/10/10 07:58:54;;;;;;;16.77;9.60;;;5.60;93.60;;;;;;4991380;28;20034;-79
2021/10/10 08:01:20;;;;;;;18.88;9.80;;;5.70;92.70;;;;;;4993359;28;20052;-78
2021/10/10 08:03:46;;;;;;;17.80;9.07;;;5.80;91.50;;;;;;4992874;28;20098;-79
2021/10/10 08:06:12;;;;;;;16.27;9.55;;;5.80;91.80;;;;;;4992885;28;20030;-79
2021/10/10 08:08:38;;;;;;;16.95;9.10;;;6.00;90.90;;;;;;4993392;28;20038;-78
2021/10/10 08:11:04;;;;;;;15.55;8.63;;;6.00;90.80;;;;;;4989339;28;20053;-78
2021/10/10 08:13:30;;;;;;;17.45;9.82;;;6.10;91.70;;;;;;4992606;28;20030;-79
2021/10/10 08:15:56;;;;;;;22.00;10.65;;;6.30;91.40;;;;;;4988584;28;20481;-79
2021/10/10 08:18:22;;;;;;;12.88;7.93;;;6.40;90.50;;;;;;4991080;28;20027;-79
2021/10/10 08:20:47;;;;;;;17.00;9.93;;;6.50;88.90;;;;;;5001870;28;20053;-79
2021/10/10 08:23:13;;;;;;;14.27;9.25;;;6.60;90.20;;;;;;4993087;28;20022;-77
2021/10/10 08:25:38;;;;;;;15.32;9.25;;;6.70;89.80;;;;;;4994970;28;20034;-78
2021/10/10 08:28:04;;;;;;;15.88;8.55;;;6.70;89.30;;;;;;4991633;28;20027;-78
2021/10/10 08:30:31;;;;;;;16.50;9.50;;;6.90;89.40;;;;;;4992259;28;20113;-78
2021/10/10 08:32:56;;;;;;;14.40;9.07;;;6.90;87.80;;;;;;4985790;28;20023;-79
2021/10/10 08:35:22;;;;;;;19.15;9.02;;;6.90;87.50;;;;;;4988530;28;20033;-78
2021/10/10 08:37:48;;;;;;;14.93;9.20;;;7.10;87.70;;;;;;4993542;28;20409;-78
2021/10/10 08:40:15;;;;;;;18.33;10.43;;;7.10;87.30;;;;;;4997197;28;20058;-78
2021/10/10 08:42:50;;;;;;;13.57;8.30;;;7.10;86.60;;;;;;4994992;28;20109;-79
2021/10/10 08:45:29;;;;;;;16.88;9.13;;;7.20;85.50;;;;;;4991481;28;20076;-78
2021/10/10 08:47:55;;;;;;;17.75;8.45;;;7.20;84.70;;;;;;4998665;28;20481;-78
2021/10/10 08:50:26;;;;;;;13.27;7.78;;;7.20;84.30;;;;;;4997579;28;20022;-79
2021/10/10 08:52:59;;;;;;;14.27;8.98;;;7.20;83.60;;;;;;5003264;28;20102;-78
2021/10/10 08:55:26;;;;;;;15.43;8.90;;;7.30;84.40;;;;;;4987599;28;20033;-78
2021/10/10 08:57:53;;;;;;;18.42;9.02;;;7.40;83.70;;;;;;5000842;28;20102;-77
2021/10/10 09:00:24;;;;;;;14.68;8.95;;;7.60;84.60;;;;;;4993918;28;20130;-79
2021/10/10 09:02:52;;;;;;;14.82;8.65;;;7.60;83.10;;;;;;4996817;28;20077;-79
2021/10/10 09:05:18;;;;;;;16.08;8.93;;;7.60;83.00;;;;;;4997434;28;20026;-77
2021/10/10 09:07:45;;;;;;;15.05;8.32;;;7.70;83.30;;;;;;5010708;28;20054;-78
2021/10/10 09:10:27;;;;;;;17.35;9.68;;;7.70;82.30;;;;;;5009627;28;20033;-78
2021/10/10 09:13:09;;;;;;;14.73;9.43;;;7.80;84.80;;;;;;5006327;28;20045;-79
2021/10/10 09:15:48;;;;;;;14.90;8.23;;;7.90;80.80;;;;;;5136722;23;20475;-68
2021/10/10 09:18:14;;;;;;;17.75;9.48;;;8.00;82.20;;;;;;4979113;28;20161;-67
2021/10/10 09:20:45;;;;;;;16.27;9.43;;;8.00;82.80;;;;;;4984679;28;20030;-67
2021/10/10 09:23:16;;;;;;;14.65;8.18;;;8.10;82.80;;;;;;4985736;28;20029;-67
2021/10/10 09:25:55;;;;;;;14.70;8.25;;;8.10;79.50;;;;;;4983367;28;20031;-67
2021/10/10 09:28:26;;;;;;;14.40;9.18;;;8.10;80.50;;;;;;4982031;28;20073;-67
2021/10/10 09:31:04;;;;;;;14.15;9.40;;;8.20;80.40;;;;;;4996989;28;20053;-67
2021/10/10 09:33:52;;;;;;;16.85;9.43;;;8.30;80.20;;;;;;5170343;23;20053;-67
2021/10/10 09:36:24;;;;;;;16.25;9.55;;;8.30;81.10;;;;;;5036251;28;20026;-68
2021/10/10 09:41:26;;;;;;;15.52;9.48;;;8.50;80.80;;;;;;5021253;28;20030;-68
2021/10/10 09:44:11;;;;;;;14.52;8.40;;;8.60;81.00;;;;;;5026329;28;20025;-68
2021/10/10 09:46:40;;;;;;;16.27;9.15;;;8.50;79.30;;;;;;5029658;28;20030;-68
2021/10/10 09:49:39;;;;;;;15.98;9.18;;;8.50;79.10;;;;;;5025812;28;20025;-67
2021/10/10 09:52:07;;;;;;;15.80;8.55;;;8.60;78.90;;;;;;4996673;28;20167;-68
2021/10/10 09:54:54;;;;;;;17.80;9.10;;;8.70;78.20;;;;;;5028387;28;20033;-68
2021/10/10 09:57:21;;;;;;;15.15;9.10;;;8.70;79.00;;;;;;5022020;28;20478;-68
2021/10/10 09:59:47;;;;;;;15.57;9.00;;;8.80;80.80;;;;;;5029103;28;20040;-68
2021/10/10 10:02:14;;;;;;;14.63;7.85;;;8.90;79.60;;;;;;5014559;28;20041;-68
2021/10/10 10:04:45;;;;;;;16.17;8.98;;;8.90;78.90;;;;;;5023695;28;20112;-68
2021/10/10 10:07:19;;;;;;;16.40;8.82;;;9.00;79.40;;;;;;5026243;28;20056;-68
2021/10/10 10:09:55;;;;;;;15.52;8.93;;;9.00;77.60;;;;;;5021296;28;20039;-68
2021/10/10 10:12:23;;;;;;;17.35;9.57;;;9.00;77.70;;;;;;5023810;28;20418;-68
2021/10/10 10:14:55;;;;;;;13.73;8.35;;;9.00;77.70;;;;;;5024414;28;20490;-69
2021/10/10 10:17:23;;;;;;;17.35;8.68;;;9.00;77.20;;;;;;5018548;28;20029;-68
2021/10/10 10:19:50;;;;;;;16.35;9.20;;;9.10;79.90;;;;;;5024687;28;20083;-68
2021/10/10 10:22:17;;;;;;;17.50;9.30;;;9.30;77.70;;;;;;5021478;28;20022;-67
2021/10/10 10:24:45;;;;;;;17.05;9.65;;;9.40;77.70;;;;;;5025042;28;20033;-67
2021/10/10 10:27:13;;;;;;;17.63;8.50;;;9.40;78.10;;;;;;5025747;28;20496;-67
2021/10/10 10:29:42;;;;;;;15.67;8.60;;;9.40;75.30;;;;;;5024569;28;20659;-67
2021/10/10 10:32:09;;;;;;;14.52;9.02;;;9.30;75.60;;;;;;5026608;28;20030;-67
2021/10/10 10:34:35;;;;;;;16.05;7.65;;;9.40;76.50;;;;;;5022841;28;20045;-67
2021/10/10 10:37:09;;;;;;;13.20;7.88;;;9.50;76.10;;;;;;5021789;28;20375;-69
2021/10/10 10:39:38;;;;;;;15.80;8.88;;;9.40;74.10;;;;;;5025034;28;20456;-68
2021/10/10 10:42:05;;;;;;;14.27;8.10;;;9.40;73.10;;;;;;5017767;28;20046;-68
2021/10/10 10:44:40;;;;;;;12.32;7.60;;;9.40;73.80;;;;;;5021544;28;20038;-68
2021/10/10 10:47:36;;;;;;;13.43;8.07;;;9.50;74.00;;;;;;5024303;28;20021;-68
2021/10/10 10:50:05;;;;;;;15.02;9.02;;;9.60;73.70;;;;;;5023349;28;20852;-67
2021/10/10 10:52:44;;;;;;;15.25;8.73;;;9.80;75.00;;;;;;5024909;28;20021;-67
2021/10/10 10:55:12;;;;;;;14.45;8.45;;;9.80;73.00;;;;;;5018316;28;20816;-67
2021/10/10 10:57:48;;;;;;;12.57;7.18;;;9.80;72.60;;;;;;5027893;28;20029;-68
2021/10/10 11:00:20;;;;;;;12.35;7.80;;;9.80;72.00;;;;;;5027874;28;20120;-67
2021/10/10 11:02:52;;;;;;;13.48;7.95;;;9.80;72.80;;;;;;5023267;28;20158;-67
2021/10/10 11:05:40;;;;;;;12.65;7.55;;;9.90;73.30;;;;;;5019130;28;20026;-68
2021/10/10 11:08:29;;;;;;;;;;;10.10;75.10;;;;;;5020807;28;20018;-67
2021/10/10 11:11:04;;;;;;;11.90;7.25;;;10.20;74.20;;;;;;5017978;28;19920;-67
2021/10/10 11:13:51;;;;;;;14.13;8.20;;;10.30;75.60;;;;;;5023174;28;20033;-67
2021/10/10 11:16:20;;;;;;;12.82;7.93;;;10.40;74.40;;;;;;5021707;28;20029;-68
2021/10/10 11:18:55;;;;;;;14.52;7.78;;;10.40;74.20;;;;;;5026300;28;20038;-67
2021/10/10 11:21:23;;;;;;;12.23;7.80;;;10.30;72.50;;;;;;5022159;28;20021;-68
2021/10/10 11:23:51;;;;;;;12.10;7.20;;;10.50;73.10;;;;;;5024215;28;20024;-67
2021/10/10 11:26:17;;;;;;;10.20;7.35;;;10.40;72.10;;;;;;5025223;28;20025;-67
2021/10/10 11:28:52;;;;;;;14.73;7.55;;;10.40;73.30;;;;;;5024798;28;20049;-67
2021/10/10 11:31:25;;;;;;;14.68;7.97;;;10.50;72.20;;;;;;5018828;28;20052;-67
2021/10/10 11:33:57;;;;;;;14.15;8.32;;;10.50;70.10;;;;;;5026363;28;20045;-67
2021/10/10 11:36:40;;;;;;;12.18;6.55;;;10.50;73.50;;;;;;5023565;28;20393;-67
2021/10/10 11:39:11;;;;;;;13.60;7.20;;;10.60;68.80;;;;;;5021057;28;20064;-67
2021/10/10 11:41:51;;;;;;;12.60;7.25;;;10.50;69.10;;;;;;5023073;28;20029;-67
2021/10/10 11:44:23;;;;;;;17.80;7.57;;;10.60;70.90;;;;;;5020602;28;20029;-67
2021/10/10 11:46:54;;;;;;;12.23;6.93;;;10.80;73.00;;;;;;5020562;28;20643;-68
2021/10/10 11:49:29;;;;;;;8.73;4.90;;;10.80;67.10;;;;;;5022878;28;20108;-67
2021/10/10 11:51:55;;;;;;;13.82;7.20;;;10.70;67.70;;;;;;5023060;28;20021;-68
2021/10/10 11:54:39;;;;;;;12.88;7.35;;;10.70;72.30;;;;;;5025105;28;20104;-68
2021/10/10 11:57:09;;;;;;;13.93;8.02;;;10.90;72.30;;;;;;5018227;28;20112;-67
2021/10/10 11:59:36;;;;;;;13.20;7.22;;;11.00;74.50;;;;;;5019598;28;20032;-68
2021/10/10 12:02:03;;;;;;;11.63;6.97;;;11.00;70.70;;;;;;5021935;28;20033;-68
2021/10/10 12:04:29;;;;;;;11.30;6.38;;;10.90;70.60;;;;;;5020162;28;20040;-68
2021/10/10 12:06:54;;;;;;;12.25;7.32;;;10.90;71.50;;;;;;5017060;28;20025;-68
2021/10/10 12:09:21;;;;;;;11.48;6.68;;;10.90;68.80;;;;;;5023511;28;20034;-69
2021/10/10 12:12:06;;;;;;;13.65;7.68;;;10.90;69.20;;;;;;5025261;28;20029;-68
2021/10/10 12:14:49;;;;;;;14.55;7.15;;;11.00;71.50;;;;;;5038881;28;20040;-68
2021/10/10 12:17:35;;;;;;;10.13;6.75;;;11.10;71.80;;;;;;5020897;28;20025;-68
2021/10/10 12:20:16;;;;;;;11.45;6.00;;;11.10;70.90;;;;;;5019945;28;20046;-68
2021/10/10 12:22:59;;;;;;;9.77;6.32;;;11.10;69.20;;;;;;5023341;28;20025;-68
2021/10/10 12:25:37;;;;;;;12.05;6.82;;;11.00;69.90;;;;;;5017772;28;20809;-68
2021/10/10 12:28:13;;;;;;;11.43;7.45;;;11.20;68.40;;;;;;5021690;28;20120;-67
2021/10/10 12:30:50;;;;;;;10.88;6.47;;;11.30;68.00;;;;;;5019665;28;20033;-68
2021/10/10 12:33:29;;;;;;;11.15;6.80;;;11.20;66.70;;;;;;5020977;28;20046;-68
2021/10/10 12:36:05;;;;;;;12.75;6.63;;;11.30;67.80;;;;;;5016976;28;20112;-68
2021/10/10 12:38:41;;;;;;;10.27;6.35;;;11.20;67.60;;;;;;5014346;28;20033;-68
2021/10/10 12:41:26;;;;;;;11.57;5.90;;;11.50;66.50;;;;;;5019904;28;20032;-68
2021/10/10 12:44:11;;;;;;;10.43;5.82;;;11.40;67.50;;;;;;5018598;28;20037;-68
2021/10/10 12:46:55;;;;;;;9.80;6.32;;;11.30;64.30;;;;;;5023338;28;21908;-69
2021/10/10 12:49:51;;;;;;;13.05;5.93;;;11.20;65.10;;;;;;5021617;28;20024;-68
2021/10/10 12:52:16;;;;;;;12.45;6.60;;;11.20;64.80;;;;;;5025628;28;20469;-68
2021/10/10 12:54:46;;;;;;;9.68;6.95;;;11.30;68.40;;;;;;5023583;28;20039;-69
2021/10/10 12:57:17;;;;;;;11.48;6.82;;;11.40;66.70;;;;;;5023802;28;20043;-68
2021/10/10 12:59:54;;;;;;;10.60;6.40;;;11.50;68.30;;;;;;5025682;28;20038;-68
2021/10/10 13:02:19;;;;;;;11.07;6.75;;;11.40;67.20;;;;;;5021837;28;20057;-68